Time;durP1;ratioP1;P1;durP2;ratioP2;P2;SDS_P1;SDS_P2;PMS_P1;PMS_P2;Temp;Humidity;BMP_temperature;BMP_pressure;BME280_temperature;BME280_humidity;BME280_pressure;Samples;Min_cycle;Max_cycle;Signal;HPM_P1;HPM_P2
2021/03/16 00:01:07;;;;;;;1.00;0.60;;;;;;;23.56;37.60;93170.75;5054765;28;20049;-84
2021/03/16 00:03:32;;;;;;;0.95;0.50;;;;;;;23.51;38.19;93152.59;5055795;28;20045;-83
2021/03/16 00:05:58;;;;;;;1.10;0.50;;;;;;;23.53;38.09;93166.41;5056770;28;20029;-83
2021/03/16 00:08:24;;;;;;;1.20;0.50;;;;;;;23.53;37.92;93171.84;5062030;28;20126;-83
2021/03/16 00:10:49;;;;;;;0.88;0.40;;;;;;;23.53;37.74;93177.28;5057714;28;20090;-80
2021/03/16 00:13:15;;;;;;;1.17;0.50;;;;;;;23.46;37.90;93161.72;5074128;28;20009;-81
2021/03/16 00:15:40;;;;;;;0.77;0.43;;;;;;;23.53;37.75;93171.84;5039147;28;20029;-80
2021/03/16 00:18:13;;;;;;;0.95;0.50;;;;;;;23.50;37.89;93162.06;5073252;28;20029;-79
2021/03/16 00:20:38;;;;;;;1.40;0.70;;;;;;;23.51;37.79;93163.47;5071684;28;20510;-83
2021/03/16 00:23:04;;;;;;;0.60;0.38;;;;;;;23.46;37.97;93164.44;5057149;28;20029;-82
2021/03/16 00:25:29;;;;;;;0.85;0.50;;;;;;;23.48;37.78;93164.59;5057976;28;20029;-82
2021/03/16 00:27:55;;;;;;;0.68;0.52;;;;;;;23.51;38.08;93168.94;5058451;28;20021;-83
2021/03/16 00:30:20;;;;;;;0.80;0.50;;;;;;;23.47;37.82;93168.63;5061992;28;20033;-83
2021/03/16 00:32:46;;;;;;;0.75;0.50;;;;;;;23.48;37.94;93172.75;5064229;28;20038;-81
2021/03/16 00:35:12;;;;;;;0.88;0.50;;;;;;;23.47;37.89;93179.50;5063080;28;20032;-82
2021/03/16 00:37:37;;;;;;;1.50;0.60;;;;;;;23.45;37.67;93169.16;5064759;28;20053;-82
2021/03/16 00:40:04;;;;;;;0.90;0.50;;;;;;;23.44;37.79;93164.28;5059477;28;20091;-83
2021/03/16 00:42:29;;;;;;;1.27;0.40;;;;;;;23.41;37.94;93162.66;5055538;28;20024;-83
2021/03/16 00:44:55;;;;;;;0.60;0.40;;;;;;;23.42;38.29;93166.81;5053578;28;20159;-82
2021/03/16 00:47:20;;;;;;;0.82;0.40;;;;;;;23.41;38.10;93160.66;5052401;28;20453;-81
2021/03/16 00:49:46;;;;;;;0.70;0.50;;;;;;;23.41;37.92;93159.94;5053022;28;20037;-83
2021/03/16 00:52:11;;;;;;;0.93;0.50;;;;;;;23.41;37.79;93159.94;5052975;28;20464;-83
2021/03/16 00:54:37;;;;;;;0.90;0.50;;;;;;;23.41;37.98;93155.19;5053929;28;20025;-82
2021/03/16 00:57:02;;;;;;;0.68;0.40;;;;;;;23.15;37.77;93122.31;5053560;28;20555;-83
2021/03/16 00:59:28;;;;;;;0.63;0.47;;;;;;;23.40;38.15;93163.91;5053376;28;20078;-83
2021/03/16 01:01:53;;;;;;;0.70;0.50;;;;;;;23.38;38.00;93161.03;5053837;28;20417;-83
2021/03/16 01:04:19;;;;;;;0.52;0.40;;;;;;;23.37;37.70;93159.56;5052743;28;20094;-83
2021/03/16 01:06:45;;;;;;;0.88;0.40;;;;;;;23.35;37.88;93159.41;5053121;28;20021;-83
2021/03/16 01:09:10;;;;;;;0.52;0.40;;;;;;;23.33;37.86;93159.22;5052472;28;20448;-82
2021/03/16 01:11:36;;;;;;;1.10;0.50;;;;;;;23.31;37.62;93161.78;5052706;28;20036;-83
2021/03/16 01:14:02;;;;;;;0.57;0.38;;;;;;;23.37;38.05;93154.13;5053078;28;20029;-83
2021/03/16 01:16:27;;;;;;;0.95;0.55;;;;;;;23.35;38.13;93159.41;5035718;28;20115;-83
2021/03/16 01:18:53;;;;;;;0.40;0.30;;;;;;;23.36;38.28;93152.69;5053206;28;20714;-84
2021/03/16 01:21:18;;;;;;;1.20;0.57;;;;;;;23.35;38.21;93153.97;5053316;28;20028;-83
2021/03/16 01:23:43;;;;;;;0.80;0.45;;;;;;;23.34;37.88;93149.78;5053263;28;20021;-83
2021/03/16 01:26:09;;;;;;;1.00;0.40;;;;;;;23.32;38.21;93157.81;5052460;28;20394;-83
2021/03/16 01:28:35;;;;;;;0.65;0.40;;;;;;;23.31;38.15;93156.34;5052280;28;20112;-83
2021/03/16 01:31:00;;;;;;;0.95;0.40;;;;;;;23.32;37.64;93146.91;5053032;28;20028;-83
2021/03/16 01:33:26;;;;;;;1.02;0.50;;;;;;;23.27;37.88;93139.66;5052713;28;20049;-82
2021/03/16 01:35:51;;;;;;;0.65;0.40;;;;;;;23.33;38.14;93145.59;5052997;28;20058;-83
2021/03/16 01:38:17;;;;;;;0.80;0.40;;;;;;;23.32;37.98;93130.56;5052045;28;20079;-83
2021/03/16 01:40:42;;;;;;;0.65;0.40;;;;;;;23.33;37.84;93142.88;5052732;28;20062;-83
2021/03/16 01:43:16;;;;;;;0.65;0.40;;;;;;;23.30;37.78;93138.53;5052669;28;20055;-83
2021/03/16 01:45:43;;;;;;;0.57;0.30;;;;;;;23.33;38.17;93136.72;5034530;28;20060;-83
2021/03/16 01:48:09;;;;;;;0.70;0.50;;;;;;;23.30;38.18;93141.28;5034604;28;20025;-83
2021/03/16 01:50:35;;;;;;;1.08;0.50;;;;;;;23.28;37.84;93134.94;5051387;28;20402;-83
2021/03/16 01:53:01;;;;;;;2.30;1.27;;;;;;;23.27;38.06;93139.66;5052509;28;20044;-82
2021/03/16 01:55:27;;;;;;;0.70;0.28;;;;;;;23.15;38.11;93127.75;5052529;28;20414;-83
2021/03/16 01:57:53;;;;;;;0.57;0.30;;;;;;;23.27;38.24;93139.66;5052787;28;20385;-83
2021/03/16 02:00:19;;;;;;;0.50;0.35;;;;;;;23.28;37.90;93140.41;5032439;28;20045;-83
2021/03/16 02:02:45;;;;;;;0.32;0.30;;;;;;;23.27;37.89;93134.19;5032190;28;20569;-83
2021/03/16 02:05:11;;;;;;;0.45;0.30;;;;;;;23.29;37.85;93147.28;5032959;28;20072;-82
2021/03/16 02:07:57;;;;;;;0.60;0.30;;;;;;;23.27;38.17;93136.94;5051600;28;20025;-83
2021/03/16 02:10:25;;;;;;;0.60;0.40;;;;;;;22.82;38.08;93062.19;5037130;28;20291;-83
2021/03/16 02:13:05;;;;;;;0.55;0.40;;;;;;;23.25;38.15;93138.78;5015280;28;20078;-82
2021/03/16 02:15:34;;;;;;;0.68;0.32;;;;;;;23.23;38.31;93139.31;5014805;28;20028;-84
2021/03/16 02:18:02;;;;;;;0.30;0.30;;;;;;;23.23;38.50;93133.88;5051588;28;20048;-82
2021/03/16 02:20:46;;;;;;;0.47;0.30;;;;;;;23.25;37.90;93131.31;5030954;28;20029;-82
2021/03/16 02:23:14;;;;;;;1.17;0.40;;;;;;;23.24;37.88;93127.13;5051744;28;20025;-82
2021/03/16 02:26:00;;;;;;;0.35;0.20;;;;;;;23.24;37.94;93140.75;5033575;28;20036;-83
2021/03/16 02:28:47;;;;;;;0.47;0.30;;;;;;;23.24;37.90;93129.88;5033863;28;20519;-83
2021/03/16 02:31:13;;;;;;;0.88;0.38;;;;;;;23.24;38.18;93129.88;5052113;28;20052;-82
2021/03/16 02:33:38;;;;;;;0.68;0.40;;;;;;;23.23;38.10;93128.44;5034481;28;20082;-83
2021/03/16 02:36:04;;;;;;;0.55;0.30;;;;;;;23.19;37.80;93127.38;5051002;28;20075;-83
2021/03/16 02:38:31;;;;;;;0.35;0.30;;;;;;;23.20;37.79;93145.13;5034608;28;20047;-82
2021/03/16 02:40:56;;;;;;;0.28;0.20;;;;;;;23.21;37.76;93133.69;5052338;28;20024;-82
2021/03/16 02:43:22;;;;;;;0.40;0.40;;;;;;;23.21;37.80;93128.25;5034084;28;20029;-82
2021/03/16 02:45:47;;;;;;;0.65;0.30;;;;;;;23.21;37.79;93130.25;5033735;28;20021;-82
2021/03/16 02:48:13;;;;;;;0.60;0.30;;;;;;;22.97;37.97;93107.16;5034556;28;20056;-83
2021/03/16 02:50:38;;;;;;;0.52;0.30;;;;;;;23.00;37.67;93105.31;5031467;28;20043;-83
2021/03/16 02:53:04;;;;;;;0.68;0.30;;;;;;;23.13;37.71;93118.69;4998720;28;20458;-82
2021/03/16 02:55:29;;;;;;;0.75;0.35;;;;;;;23.08;38.24;93123.06;5051393;28;20478;-82
2021/03/16 02:57:55;;;;;;;0.30;0.20;;;;;;;23.18;38.01;93139.53;5033822;28;20041;-83
2021/03/16 03:00:22;;;;;;;0.60;0.40;;;;;;;23.19;37.94;93136.25;5049687;28;20395;-83
2021/03/16 03:02:47;;;;;;;0.55;0.40;;;;;;;23.11;37.64;93127.41;5051291;28;20521;-83
2021/03/16 03:05:13;;;;;;;0.93;0.40;;;;;;;23.18;38.03;93140.25;5051012;28;20036;-83
2021/03/16 03:07:39;;;;;;;0.57;0.32;;;;;;;23.01;38.45;93115.66;5050843;28;20394;-83
2021/03/16 03:10:05;;;;;;;1.67;0.45;;;;;;;23.19;37.84;93149.88;5050413;28;20025;-83
2021/03/16 03:12:30;;;;;;;0.85;0.30;;;;;;;23.18;37.93;93137.53;5052028;28;20040;-83
2021/03/16 03:14:56;;;;;;;0.90;0.40;;;;;;;23.20;38.05;93145.88;5036712;28;20075;-83
2021/03/16 03:17:21;;;;;;;0.63;0.32;;;;;;;23.18;38.14;93153.16;5036801;28;20032;-83
2021/03/16 03:19:47;;;;;;;0.57;0.40;;;;;;;23.16;38.20;93144.81;5055087;28;20493;-83
2021/03/16 03:22:23;;;;;;;0.70;0.30;;;;;;;23.16;38.12;93150.97;5054638;28;20406;-83
2021/03/16 03:24:55;;;;;;;0.50;0.20;;;;;;;23.15;37.89;93155.00;5053798;28;20029;-83
2021/03/16 03:27:22;;;;;;;0.47;0.30;;;;;;;23.15;38.16;93155.00;5037868;28;20024;-83
2021/03/16 03:29:47;;;;;;;0.40;0.30;;;;;;;23.04;37.83;93139.06;5054975;28;20032;-83
2021/03/16 03:32:13;;;;;;;0.55;0.30;;;;;;;23.18;37.81;93164.75;5053250;28;20021;-80
2021/03/16 03:34:39;;;;;;;0.50;0.30;;;;;;;22.88;37.80;93114.44;5053234;28;20028;-83
2021/03/16 03:37:04;;;;;;;0.30;0.30;;;;;;;23.16;37.87;93172.75;5036525;28;20037;-84
2021/03/16 03:39:31;;;;;;;0.38;0.20;;;;;;;23.07;37.81;93148.84;5054272;28;20418;-83
2021/03/16 03:41:57;;;;;;;0.38;0.30;;;;;;;23.09;38.15;93168.09;5054207;28;20585;-84
2021/03/16 03:44:22;;;;;;;0.68;0.40;;;;;;;23.01;38.03;93156.50;5053162;28;20032;-84
2021/03/16 03:46:48;;;;;;;1.05;0.20;;;;;;;23.00;38.20;93165.94;5054230;28;20025;-83
2021/03/16 03:49:14;;;;;;;0.50;0.20;;;;;;;22.97;37.98;93167.06;5037474;28;20041;-83
2021/03/16 03:51:39;;;;;;;0.85;0.32;;;;;;;22.97;38.22;93172.50;5054005;28;20552;-83
2021/03/16 03:54:05;;;;;;;0.57;0.30;;;;;;;22.99;38.03;93167.22;5038757;28;20029;-83
2021/03/16 03:56:32;;;;;;;0.45;0.30;;;;;;;23.02;38.07;93163.38;5041013;28;20035;-83
2021/03/16 03:58:58;;;;;;;0.50;0.28;;;;;;;23.04;37.98;93171.72;5066340;28;20482;-82
2021/03/16 04:01:24;;;;;;;0.80;0.40;;;;;;;23.05;38.02;93167.00;5034758;28;20025;-83
2021/03/16 04:03:49;;;;;;;0.32;0.20;;;;;;;23.04;37.90;93177.16;5047131;28;20042;-83
2021/03/16 04:06:15;;;;;;;0.68;0.30;;;;;;;23.04;38.23;93177.16;5028179;28;20026;-84
2021/03/16 04:08:40;;;;;;;0.60;0.30;;;;;;;23.02;38.07;93185.16;5029048;28;20005;-83
2021/03/16 04:11:06;;;;;;;0.50;0.30;;;;;;;23.03;38.22;93181.19;5024132;28;20514;-85
2021/03/16 04:13:32;;;;;;;1.17;0.30;;;;;;;23.03;37.81;93175.72;5004005;28;20053;-79
2021/03/16 04:15:57;;;;;;;0.30;0.20;;;;;;;22.83;37.73;93150.75;4987109;28;20037;-83
2021/03/16 04:18:23;;;;;;;0.50;0.20;;;;;;;22.62;37.62;93114.91;4978315;28;20038;-79
2021/03/16 04:20:48;;;;;;;0.40;0.20;;;;;;;23.06;37.86;93188.25;4993283;28;20037;-79
2021/03/16 04:23:13;;;;;;;0.73;0.30;;;;;;;22.83;37.60;93140.56;4999753;28;20026;-77
2021/03/16 04:25:39;;;;;;;0.30;0.30;;;;;;;23.14;37.96;93186.22;5001519;28;20029;-80
2021/03/16 04:28:04;;;;;;;0.45;0.22;;;;;;;23.13;37.67;93189.47;5003292;28;20022;-80
2021/03/16 04:30:30;;;;;;;0.30;0.20;;;;;;;23.13;37.85;93195.66;5005078;28;20061;-83
2021/03/16 04:32:56;;;;;;;0.68;0.40;;;;;;;23.13;37.80;93198.38;5004844;28;20041;-79
2021/03/16 04:35:21;;;;;;;1.20;0.60;;;;;;;23.15;37.84;93204.00;4993630;28;20091;-80
2021/03/16 04:37:47;;;;;;;1.85;1.40;;;;;;;23.16;38.16;93199.97;5005588;28;20027;-80
2021/03/16 04:40:13;;;;;;;1.27;0.82;;;;;;;23.18;38.52;93219.22;5006643;28;20511;-79
2021/03/16 04:42:38;;;;;;;1.83;0.30;;;;;;;23.19;38.42;93198.88;4993832;28;20018;-81
2021/03/16 04:45:04;;;;;;;1.17;0.68;;;;;;;23.19;39.08;93196.16;4999873;28;20026;-79
2021/03/16 04:47:30;;;;;;;9.15;7.18;;;;;;;23.18;39.12;93202.88;4994147;28;20029;-82
2021/03/16 04:49:55;;;;;;;114.20;81.10;;;;;;;23.19;38.92;93209.78;4999726;28;20030;-79
2021/03/16 04:52:21;;;;;;;2.63;0.75;;;;;;;23.13;39.21;93200.38;4997016;28;20038;-80
2021/03/16 04:54:47;;;;;;;2.03;1.17;;;;;;;23.20;39.57;93208.50;4995017;28;20034;-79
2021/03/16 04:57:12;;;;;;;129.63;87.57;;;;;;;23.18;40.00;93208.31;5012321;28;20026;-83
2021/03/16 04:59:37;;;;;;;231.80;155.40;;;;;;;22.92;39.91;93184.25;5012387;28;20041;-76
2021/03/16 05:02:03;;;;;;;174.80;121.10;;;;;;;22.95;39.95;93179.75;5007087;28;20124;-78
2021/03/16 05:04:29;;;;;;;49.88;44.92;;;;;;;23.23;40.03;93214.84;5048488;28;20041;-82
2021/03/16 05:06:54;;;;;;;184.52;111.75;;;;;;;23.15;40.17;93206.72;5040559;28;20013;-82
2021/03/16 05:09:20;;;;;;;406.40;231.40;;;;;;;23.16;40.24;93205.44;5043462;28;20032;-76
2021/03/16 05:11:45;;;;;;;1.58;1.20;;;;;;;23.22;39.99;93222.28;5049568;28;20029;-80
2021/03/16 05:14:10;;;;;;;5.15;4.20;;;;;;;23.24;40.09;93225.19;5035917;28;20040;-76
2021/03/16 05:16:36;;;;;;;70.68;48.92;;;;;;;23.19;39.92;93215.22;5040285;28;20071;-80
2021/03/16 05:19:01;;;;;;;83.07;60.15;;;;;;;23.31;39.68;93238.06;5036266;28;20425;-78
2021/03/16 05:21:28;;;;;;;12.10;10.85;;;;;;;23.40;39.76;93226.56;5030740;28;20510;-78
2021/03/16 05:23:54;;;;;;;73.38;45.63;;;;;;;23.47;39.25;93234.00;5036951;28;20032;-78
2021/03/16 05:26:19;;;;;;;311.63;179.50;;;;;;;23.51;39.04;93223.41;5028754;28;20048;-76
2021/03/16 05:28:45;;;;;;;791.60;588.22;;;;;;;23.62;38.99;93228.47;5021709;28;20021;-75
2021/03/16 05:31:10;;;;;;;67.10;34.03;;;;;;;23.65;38.79;93224.66;5040237;28;20040;-75
2021/03/16 05:33:36;;;;;;;314.27;186.07;;;;;;;23.79;38.18;93228.56;5038038;28;20107;-75
2021/03/16 05:36:01;;;;;;;1.88;0.40;;;;;;;23.66;38.25;93180.50;5024737;28;20521;-80
2021/03/16 05:38:27;;;;;;;2.08;0.43;;;;;;;23.99;37.95;93239.91;5036776;28;20033;-76
2021/03/16 05:40:52;;;;;;;1.98;0.57;;;;;;;24.05;37.85;93224.03;5043540;28;20032;-78
2021/03/16 05:43:18;;;;;;;1.63;0.35;;;;;;;24.16;37.61;93242.69;5038050;28;20079;-77
2021/03/16 05:45:43;;;;;;;1.73;0.82;;;;;;;24.07;37.54;93215.31;5041399;28;20032;-79
2021/03/16 05:48:09;;;;;;;0.77;0.20;;;;;;;24.34;37.02;93246.94;5044631;28;20059;-78
2021/03/16 05:50:34;;;;;;;1.75;0.50;;;;;;;24.47;36.71;93254.84;5047312;28;20854;-75
2021/03/16 05:53:01;;;;;;;1.05;0.40;;;;;;;24.56;36.78;93251.50;5041017;28;20026;-74
2021/03/16 05:55:27;;;;;;;0.65;0.20;;;;;;;24.38;36.36;93209.06;5047007;28;20040;-74
2021/03/16 05:57:52;;;;;;;3.08;0.50;;;;;;;24.62;36.18;93232.84;5009805;28;20041;-74
2021/03/16 06:00:18;;;;;;;2.15;0.20;;;;;;;24.80;35.92;93253.44;5048799;28;20020;-73
2021/03/16 06:02:43;;;;;;;1.02;0.30;;;;;;;24.73;36.20;93232.41;5044327;28;20049;-74
2021/03/16 06:05:09;;;;;;;1.80;0.32;;;;;;;24.90;35.67;93244.78;5048347;28;20023;-75
2021/03/16 06:07:35;;;;;;;1.88;0.40;;;;;;;25.01;35.35;93257.28;5045262;28;20026;-80
2021/03/16 06:10:01;;;;;;;2.25;0.50;;;;;;;25.10;35.69;93259.38;5044825;28;20033;-77
2021/03/16 06:12:33;;;;;;;1.98;0.38;;;;;;;25.16;35.34;93263.28;5038146;28;20489;-77
2021/03/16 06:15:12;;;;;;;0.88;0.40;;;;;;;25.22;35.50;93269.25;4958549;28;20196;-77
2021/03/16 06:17:44;;;;;;;1.98;0.43;;;;;;;25.27;35.34;93279.19;4995065;28;20030;-79
2021/03/16 06:20:12;;;;;;;1.25;0.30;;;;;;;25.31;34.81;93279.53;4986579;28;20174;-75
2021/03/16 06:22:37;;;;;;;2.00;0.43;;;;;;;25.24;34.66;93280.31;5006028;28;20451;-75
2021/03/16 06:25:04;;;;;;;1.73;0.40;;;;;;;25.36;34.72;93281.28;5009050;28;20061;-75
2021/03/16 06:27:29;;;;;;;2.50;0.50;;;;;;;25.35;34.96;93280.56;5011136;28;20018;-80
2021/03/16 06:29:54;;;;;;;1.02;0.40;;;;;;;25.02;34.20;93220.47;5000094;28;20034;-82
2021/03/16 06:32:20;;;;;;;2.28;0.47;;;;;;;25.46;34.19;93282.09;4984351;28;20033;-77
2021/03/16 06:34:46;;;;;;;1.13;0.52;;;;;;;25.53;34.15;93289.47;4994836;28;20454;-75
2021/03/16 06:37:11;;;;;;;2.22;0.77;;;;;;;25.60;34.50;93291.41;4977020;28;20022;-84
2021/03/16 06:39:46;;;;;;;1.80;0.60;;;;;;;25.23;34.31;93237.91;5008929;28;20037;-75
2021/03/16 06:42:22;;;;;;;1.17;0.35;;;;;;;25.72;34.24;93300.56;4989634;28;20021;-73
2021/03/16 06:44:57;;;;;;;2.58;0.40;;;;;;;25.60;34.34;93288.66;4996374;28;20033;-78
2021/03/16 06:47:22;;;;;;;1.30;0.47;;;;;;;25.70;34.36;93303.16;4998129;28;20060;-77
2021/03/16 06:49:48;;;;;;;1.42;0.40;;;;;;;25.55;33.65;93281.44;5006823;28;20022;-80
2021/03/16 06:52:13;;;;;;;2.30;0.50;;;;;;;25.79;34.19;93312.13;4992136;28;20014;-74
2021/03/16 06:54:38;;;;;;;2.03;0.55;;;;;;;25.86;34.09;93316.78;5013266;28;20026;-75
2021/03/16 06:57:06;;;;;;;1.85;0.40;;;;;;;25.89;34.29;93309.47;5008584;28;20026;-76
2021/03/16 06:59:32;;;;;;;1.63;0.55;;;;;;;25.97;34.26;93329.97;5001459;28;20140;-76
2021/03/16 07:01:57;;;;;;;1.15;0.40;;;;;;;25.77;34.47;93297.59;5009142;28;20663;-76
2021/03/16 07:04:26;;;;;;;0.90;0.30;;;;;;;26.01;34.28;93335.75;4996472;28;20051;-75
2021/03/16 07:06:52;;;;;;;3.38;0.38;;;;;;;25.95;34.49;93329.81;4989512;28;20053;-73
2021/03/16 07:09:18;;;;;;;1.35;0.50;;;;;;;26.08;34.14;93343.13;4984526;28;20039;-81
2021/03/16 07:11:47;;;;;;;1.25;0.60;;;;;;;25.80;33.88;93297.19;4979715;28;20601;-80
2021/03/16 07:14:13;;;;;;;2.47;0.50;;;;;;;26.10;34.06;93337.81;4992631;28;20048;-81
2021/03/16 07:16:38;;;;;;;2.08;0.60;;;;;;;26.16;33.91;93338.28;4995562;28;20547;-80
2021/03/16 07:19:05;;;;;;;3.83;0.60;;;;;;;26.14;33.96;93338.13;4997998;28;20030;-79
2021/03/16 07:21:35;;;;;;;0.88;0.30;;;;;;;26.16;33.70;93341.03;5002434;28;20506;-81
2021/03/16 07:24:08;;;;;;;1.27;0.40;;;;;;;26.16;33.72;93349.25;4999286;28;20037;-80
2021/03/16 07:26:33;;;;;;;1.30;0.30;;;;;;;26.15;33.50;93352.53;4997586;28;20030;-75
2021/03/16 07:28:59;;;;;;;1.13;0.40;;;;;;;26.07;33.82;93347.16;4996291;28;20060;-80
2021/03/16 07:31:24;;;;;;;1.52;0.40;;;;;;;26.04;33.82;93351.03;4998144;28;20554;-80
2021/03/16 07:33:50;;;;;;;2.10;0.68;;;;;;;26.03;33.44;93357.78;4994678;28;20439;-79
2021/03/16 07:36:15;;;;;;;1.15;0.40;;;;;;;25.94;33.78;93361.19;5012946;28;20042;-80
2021/03/16 07:38:41;;;;;;;1.05;0.20;;;;;;;25.86;33.71;93360.56;4994137;28;20553;-80
2021/03/16 07:41:07;;;;;;;1.30;0.50;;;;;;;25.83;34.21;93360.97;4997116;28;20037;-80
2021/03/16 07:43:33;;;;;;;1.23;0.50;;;;;;;25.72;34.06;93366.19;5013838;28;20045;-81
2021/03/16 07:46:14;;;;;;;1.35;0.40;;;;;;;25.61;34.08;93372.13;4999219;28;20038;-81
2021/03/16 07:48:44;;;;;;;0.90;0.40;;;;;;;25.56;34.20;93364.88;4995740;28;20570;-80
2021/03/16 07:51:15;;;;;;;1.80;0.70;;;;;;;25.49;34.27;93376.63;4997995;28;20123;-79
2021/03/16 07:53:41;;;;;;;5.72;5.20;;;;;;;25.41;34.06;93365.78;4990490;28;20029;-81
2021/03/16 07:56:08;;;;;;;162.60;98.13;;;;;;;25.36;34.43;93379.66;4997265;28;20478;-81
2021/03/16 07:58:45;;;;;;;2.88;1.08;;;;;;;25.28;34.22;93384.47;4991391;28;20146;-81
2021/03/16 08:01:11;;;;;;;1.95;0.63;;;;;;;25.18;34.49;93375.47;4987449;28;20030;-82
2021/03/16 08:03:37;;;;;;;103.30;38.78;;;;;;;25.19;34.73;93385.13;4986132;28;20081;-77
2021/03/16 08:06:02;;;;;;;27.50;11.45;;;;;;;25.13;34.93;93357.31;4994718;28;20030;-80
2021/03/16 08:08:37;;;;;;;3.17;0.70;;;;;;;25.08;34.85;93377.38;4986047;28;20027;-77
2021/03/16 08:11:11;;;;;;;1.33;0.43;;;;;;;25.02;34.69;93378.88;4994211;28;20081;-80
2021/03/16 08:13:37;;;;;;;3.85;0.50;;;;;;;24.52;34.89;93316.66;4992917;28;20065;-79
2021/03/16 08:16:10;;;;;;;2.80;0.52;;;;;;;24.91;34.72;93396.41;4992865;28;20026;-78
2021/03/16 08:18:35;;;;;;;4.53;0.65;;;;;;;24.87;35.32;93406.28;4984630;28;20480;-80
2021/03/16 08:21:13;;;;;;;10.35;2.85;;;;;;;24.83;34.85;93390.28;4993490;28;20041;-79
2021/03/16 08:23:39;;;;;;;2.15;0.50;;;;;;;24.79;34.97;93404.91;4981831;28;20066;-81
2021/03/16 08:26:05;;;;;;;29.38;14.45;;;;;;;24.76;35.09;93389.63;4994079;28;20028;-84
2021/03/16 08:28:34;;;;;;;3.22;0.70;;;;;;;24.75;35.39;93394.34;4992641;28;20065;-80
2021/03/16 08:31:00;;;;;;;1.60;0.50;;;;;;;24.66;35.45;93386.06;4997454;28;20058;-80
2021/03/16 08:33:28;;;;;;;2.70;0.60;;;;;;;24.34;35.75;93356.78;4995247;28;20033;-79
2021/03/16 08:35:55;;;;;;;3.45;0.70;;;;;;;24.47;35.91;93391.28;4996821;28;20034;-80
2021/03/16 08:38:27;;;;;;;16.80;6.30;;;;;;;24.35;35.75;93409.38;4997434;28;20037;-78
2021/03/16 08:41:03;;;;;;;3.88;0.60;;;;;;;24.29;36.42;93392.44;4995193;28;20052;-79
2021/03/16 08:43:29;;;;;;;4.40;0.57;;;;;;;24.22;36.62;93397.94;4995433;28;20116;-79
2021/03/16 08:45:54;;;;;;;0.90;0.40;;;;;;;24.16;36.09;93395.41;4995278;28;20030;-79
2021/03/16 08:48:30;;;;;;;3.08;0.65;;;;;;;24.17;36.27;93407.78;5008285;28;20057;-78
2021/03/16 08:50:56;;;;;;;1.75;0.60;;;;;;;24.18;36.24;93392.84;5009538;28;20073;-78
2021/03/16 08:53:21;;;;;;;2.88;0.60;;;;;;;24.20;36.37;93390.31;4994037;28;20318;-80
2021/03/16 08:55:48;;;;;;;1.52;0.57;;;;;;;24.21;36.42;93397.19;5010270;28;20030;-79
2021/03/16 08:58:14;;;;;;;2.45;0.50;;;;;;;24.19;35.89;93399.75;4994548;28;20026;-78
2021/03/16 09:00:39;;;;;;;1.88;0.55;;;;;;;24.17;36.88;93407.78;4995553;28;20037;-76
2021/03/16 09:03:05;;;;;;;2.08;0.47;;;;;;;24.11;36.58;93392.88;5002615;28;20058;-79
2021/03/16 09:05:30;;;;;;;1.15;0.40;;;;;;;24.03;36.73;93401.09;5014998;28;20072;-79
2021/03/16 09:07:59;;;;;;;2.28;0.47;;;;;;;23.96;36.15;93387.50;5015657;28;20029;-79
2021/03/16 09:10:24;;;;;;;1.77;0.63;;;;;;;24.09;36.69;93401.63;5015597;28;20108;-79
2021/03/16 09:12:51;;;;;;;2.20;0.60;;;;;;;24.07;36.23;93415.09;5014571;28;20062;-79
2021/03/16 09:15:26;;;;;;;1.33;0.50;;;;;;;24.05;36.65;93395.84;5015622;28;20107;-79
2021/03/16 09:17:54;;;;;;;0.50;0.28;;;;;;;24.03;36.47;93403.81;4995990;28;20029;-81
2021/03/16 09:20:25;;;;;;;1.20;0.45;;;;;;;24.02;36.84;93407.84;5012501;28;20044;-78
2021/03/16 09:23:09;;;;;;;1.77;0.55;;;;;;;24.01;36.50;93417.28;5012109;28;20487;-79
2021/03/16 09:25:36;;;;;;;1.23;0.40;;;;;;;23.95;36.30;93397.69;5012372;28;20022;-77
2021/03/16 09:28:03;;;;;;;1.98;0.70;;;;;;;23.99;36.62;93392.59;5011566;28;20018;-76
2021/03/16 09:30:33;;;;;;;1.70;0.60;;;;;;;23.98;36.58;93402.03;5010771;28;20457;-78
2021/03/16 09:32:58;;;;;;;1.90;0.50;;;;;;;23.77;36.44;93375.59;5010361;28;20120;-78
2021/03/16 09:35:24;;;;;;;1.60;0.40;;;;;;;23.96;36.85;93429.13;5008985;28;20031;-81
2021/03/16 09:37:50;;;;;;;1.90;0.63;;;;;;;23.94;37.00;93409.84;4993880;28;20073;-75
2021/03/16 09:40:16;;;;;;;1.17;0.50;;;;;;;23.95;36.76;93408.59;5021304;28;20479;-76
2021/03/16 09:42:47;;;;;;;1.48;0.60;;;;;;;23.94;36.73;93418.03;4995807;28;20022;-76
2021/03/16 09:45:19;;;;;;;1.98;0.77;;;;;;;23.92;37.05;93420.59;5014493;28;20026;-74
2021/03/16 09:47:45;;;;;;;2.95;0.52;;;;;;;23.90;36.73;93411.50;4991934;28;20034;-79
2021/03/16 09:50:19;;;;;;;2.65;0.52;;;;;;;23.86;36.85;93414.63;4993499;28;20037;-75
2021/03/16 09:52:55;;;;;;;3.38;0.60;;;;;;;23.88;36.84;93419.53;5011326;28;20072;-76
2021/03/16 09:55:22;;;;;;;4.13;1.23;;;;;;;23.86;37.07;93433.72;5010639;28;20545;-75
2021/03/16 09:57:48;;;;;;;2.53;0.60;;;;;;;23.86;37.24;93430.97;5010487;28;20397;-77
2021/03/16 10:00:14;;;;;;;1.42;0.47;;;;;;;23.86;37.25;93429.56;5008578;28;20032;-75
2021/03/16 10:02:40;;;;;;;2.28;0.70;;;;;;;23.86;37.29;93426.81;4997600;28;20077;-77
2021/03/16 10:05:10;;;;;;;1.13;0.50;;;;;;;23.85;37.38;93431.53;5004528;28;20038;-74
2021/03/16 10:07:36;;;;;;;2.60;0.60;;;;;;;23.84;36.39;93429.34;5012022;28;20036;-75
2021/03/16 10:10:17;;;;;;;1.17;0.57;;;;;;;23.85;36.91;93436.25;5004123;28;20491;-74
2021/03/16 10:13:10;;;;;;;1.50;0.60;;;;;;;23.85;36.94;93452.63;5012442;28;20080;-76
2021/03/16 10:15:36;;;;;;;2.13;0.50;;;;;;;23.86;36.87;93436.44;5010986;28;20042;-76
2021/03/16 10:18:05;;;;;;;1.70;0.50;;;;;;;23.89;37.15;93443.50;5003430;28;20038;-78
2021/03/16 10:20:32;;;;;;;1.17;0.50;;;;;;;23.86;36.50;93439.16;5011262;28;20026;-78
2021/03/16 10:22:59;;;;;;;1.83;0.73;;;;;;;23.98;36.70;93451.13;5011367;28;20084;-77
2021/03/16 10:25:26;;;;;;;1.10;0.57;;;;;;;24.07;36.73;93458.72;5007136;28;20038;-76
2021/03/16 10:27:55;;;;;;;1.60;0.77;;;;;;;24.16;36.67;93465.63;5014870;28;20018;-76
2021/03/16 10:30:27;;;;;;;1.92;0.40;;;;;;;24.23;36.10;93451.94;5002993;28;20045;-78
2021/03/16 10:32:53;;;;;;;1.40;0.57;;;;;;;24.20;36.21;93444.88;5005041;28;20041;-79
2021/03/16 10:35:18;;;;;;;1.17;0.60;;;;;;;24.17;36.07;93413.25;4988386;28;20536;-79
2021/03/16 10:37:44;;;;;;;1.00;0.52;;;;;;;24.52;35.79;93461.28;5010073;28;20049;-82
2021/03/16 10:40:10;;;;;;;2.55;0.50;;;;;;;24.62;35.66;93451.22;5006578;28;20040;-82
2021/03/16 10:42:36;;;;;;;1.17;0.70;;;;;;;24.73;35.89;93461.72;5013491;28;20050;-82
2021/03/16 10:45:02;;;;;;;2.05;0.65;;;;;;;24.83;35.30;93450.38;4983878;28;20478;-81
2021/03/16 10:47:27;;;;;;;1.25;0.50;;;;;;;24.89;35.78;93459.06;5005305;28;20506;-82
2021/03/16 10:49:53;;;;;;;1.42;0.70;;;;;;;24.81;35.35;93415.97;5007442;28;20049;-83
2021/03/16 10:52:18;;;;;;;1.20;0.50;;;;;;;25.05;35.02;93455.00;5013976;28;20038;-76
2021/03/16 10:54:44;;;;;;;1.17;0.68;;;;;;;25.14;34.98;93462.56;5006103;28;20048;-78
2021/03/16 10:57:09;;;;;;;1.35;0.65;;;;;;;25.21;34.98;93472.69;4978853;28;20521;-76
2021/03/16 10:59:35;;;;;;;0.93;0.60;;;;;;;25.23;34.34;93448.28;5010877;28;20034;-76
2021/03/16 11:02:00;;;;;;;2.78;0.80;;;;;;;25.33;34.54;93451.84;5013064;28;20477;-76
2021/03/16 11:04:26;;;;;;;1.52;0.63;;;;;;;25.15;34.34;93420.28;5008351;28;20057;-77
2021/03/16 11:06:51;;;;;;;1.30;0.50;;;;;;;25.51;33.94;93462.22;4989572;28;20026;-76
2021/03/16 11:09:17;;;;;;;1.85;0.60;;;;;;;25.51;34.21;93447.84;5009453;28;20041;-77
2021/03/16 11:11:42;;;;;;;0.82;0.50;;;;;;;25.63;34.18;93467.97;5010880;28;20037;-76
2021/03/16 11:14:08;;;;;;;1.75;0.70;;;;;;;25.65;33.99;93452.50;4994154;28;20030;-77
2021/03/16 11:16:34;;;;;;;4.95;0.80;;;;;;;25.69;34.23;93477.41;5010184;28;20456;-77
2021/03/16 11:18:59;;;;;;;3.03;0.85;;;;;;;25.78;33.82;93468.56;5009643;28;20062;-78
2021/03/16 11:21:25;;;;;;;0.93;0.55;;;;;;;25.56;33.87;93422.28;5011984;28;20030;-81
2021/03/16 11:23:51;;;;;;;1.20;0.50;;;;;;;25.82;33.74;93464.16;5008966;28;20038;-74
2021/03/16 11:26:16;;;;;;;1.67;0.80;;;;;;;25.63;33.67;93418.75;5011694;28;20037;-77
2021/03/16 11:28:42;;;;;;;1.27;0.60;;;;;;;25.87;33.67;93455.00;5027430;28;20034;-75
2021/03/16 11:31:07;;;;;;;1.05;0.43;;;;;;;25.93;33.57;93452.75;5023498;28;20041;-77